sensor_id;sensor_type;location;lat;lon;timestamp;pressure;altitude;pressure_sealevel;temperature
68745;BMP180;73143;45.456;11.064;2024-02-23T00:00:35;99235.80;;;10.70
68745;BMP180;73143;45.456;11.064;2024-02-23T00:03:14;99235.00;;;10.70
68745;BMP180;73143;45.456;11.064;2024-02-23T00:05:51;99227.80;;;10.70
68745;BMP180;73143;45.456;11.064;2024-02-23T00:08:29;99228.00;;;10.60
68745;BMP180;73143;45.456;11.064;2024-02-23T00:11:07;99217.00;;;10.60
68745;BMP180;73143;45.456;11.064;2024-02-23T00:13:44;99209.20;;;10.60
68745;BMP180;73143;45.456;11.064;2024-02-23T00:16:22;99195.00;;;10.60
68745;BMP180;73143;45.456;11.064;2024-02-23T00:19:01;99185.20;;;10.58
68745;BMP180;73143;45.456;11.064;2024-02-23T00:21:38;99185.60;;;10.50
68745;BMP180;73143;45.456;11.064;2024-02-23T00:24:16;99186.00;;;10.50
68745;BMP180;73143;45.456;11.064;2024-02-23T00:26:55;99177.20;;;10.50
68745;BMP180;73143;45.456;11.064;2024-02-23T00:29:31;99172.00;;;10.50
68745;BMP180;73143;45.456;11.064;2024-02-23T00:32:10;99177.60;;;10.48
68745;BMP180;73143;45.456;11.064;2024-02-23T00:34:48;99168.20;;;10.50
68745;BMP180;73143;45.456;11.064;2024-02-23T00:37:26;99167.20;;;10.50
68745;BMP180;73143;45.456;11.064;2024-02-23T00:40:06;99159.80;;;10.50
68745;BMP180;73143;45.456;11.064;2024-02-23T00:42:44;99159.20;;;10.50
68745;BMP180;73143;45.456;11.064;2024-02-23T00:45:22;99157.80;;;10.50
68745;BMP180;73143;45.456;11.064;2024-02-23T00:47:59;99150.80;;;10.50
68745;BMP180;73143;45.456;11.064;2024-02-23T00:50:35;99149.00;;;10.50
68745;BMP180;73143;45.456;11.064;2024-02-23T00:53:13;99150.20;;;10.50
68745;BMP180;73143;45.456;11.064;2024-02-23T00:55:52;99143.80;;;10.50
68745;BMP180;73143;45.456;11.064;2024-02-23T00:58:29;99135.00;;;10.48
68745;BMP180;73143;45.456;11.064;2024-02-23T01:01:07;99133.40;;;10.40
68745;BMP180;73143;45.456;11.064;2024-02-23T01:03:43;99131.60;;;10.42
68745;BMP180;73143;45.456;11.064;2024-02-23T01:06:21;99134.20;;;10.40
68745;BMP180;73143;45.456;11.064;2024-02-23T01:08:58;99132.00;;;10.40
68745;BMP180;73143;45.456;11.064;2024-02-23T01:11:35;99109.60;;;10.40
68745;BMP180;73143;45.456;11.064;2024-02-23T01:14:12;99108.60;;;10.40
68745;BMP180;73143;45.456;11.064;2024-02-23T01:16:50;99101.00;;;10.38
68745;BMP180;73143;45.456;11.064;2024-02-23T01:19:28;99094.00;;;10.34
68745;BMP180;73143;45.456;11.064;2024-02-23T01:22:05;99090.40;;;10.40
68745;BMP180;73143;45.456;11.064;2024-02-23T01:24:42;99083.80;;;10.40
68745;BMP180;73143;45.456;11.064;2024-02-23T01:27:19;99079.00;;;10.40
68745;BMP180;73143;45.456;11.064;2024-02-23T01:29:57;99061.00;;;10.40
68745;BMP180;73143;45.456;11.064;2024-02-23T01:32:33;99053.00;;;10.40
68745;BMP180;73143;45.456;11.064;2024-02-23T01:35:15;99033.40;;;10.50
68745;BMP180;73143;45.456;11.064;2024-02-23T01:37:52;99044.60;;;10.50
68745;BMP180;73143;45.456;11.064;2024-02-23T01:40:30;99027.20;;;10.50
68745;BMP180;73143;45.456;11.064;2024-02-23T01:43:08;99039.40;;;10.50
68745;BMP180;73143;45.456;11.064;2024-02-23T01:45:45;99021.40;;;10.58
68745;BMP180;73143;45.456;11.064;2024-02-23T01:48:22;99018.60;;;10.60
68745;BMP180;73143;45.456;11.064;2024-02-23T01:51:00;99017.40;;;10.60
68745;BMP180;73143;45.456;11.064;2024-02-23T01:53:37;99007.20;;;10.60
68745;BMP180;73143;45.456;11.064;2024-02-23T01:56:14;98987.60;;;10.60
68745;BMP180;73143;45.456;11.064;2024-02-23T01:58:53;98993.20;;;10.56
68745;BMP180;73143;45.456;11.064;2024-02-23T02:01:31;98990.00;;;10.60
68745;BMP180;73143;45.456;11.064;2024-02-23T02:04:08;98973.20;;;10.60
68745;BMP180;73143;45.456;11.064;2024-02-23T02:06:46;98981.80;;;10.66
68745;BMP180;73143;45.456;11.064;2024-02-23T02:09:23;98973.40;;;10.70
68745;BMP180;73143;45.456;11.064;2024-02-23T02:12:01;98991.80;;;10.70
68745;BMP180;73143;45.456;11.064;2024-02-23T02:14:38;98979.20;;;10.70
68745;BMP180;73143;45.456;11.064;2024-02-23T02:17:15;98980.00;;;10.68
68745;BMP180;73143;45.456;11.064;2024-02-23T02:19:53;98971.60;;;10.60
68745;BMP180;73143;45.456;11.064;2024-02-23T02:22:31;98974.80;;;10.60
68745;BMP180;73143;45.456;11.064;2024-02-23T02:25:13;98971.60;;;10.60
68745;BMP180;73143;45.456;11.064;2024-02-23T02:27:51;98980.20;;;10.58
68745;BMP180;73143;45.456;11.064;2024-02-23T02:30:28;98970.80;;;10.52
68745;BMP180;73143;45.456;11.064;2024-02-23T02:33:05;98970.40;;;10.52
68745;BMP180;73143;45.456;11.064;2024-02-23T02:35:43;98965.40;;;10.50
68745;BMP180;73143;45.456;11.064;2024-02-23T02:38:20;98977.00;;;10.50
68745;BMP180;73143;45.456;11.064;2024-02-23T02:40:57;98965.80;;;10.52
68745;BMP180;73143;45.456;11.064;2024-02-23T02:43:34;98962.80;;;10.52
68745;BMP180;73143;45.456;11.064;2024-02-23T02:46:12;98958.60;;;10.60
68745;BMP180;73143;45.456;11.064;2024-02-23T02:48:49;98950.80;;;10.60
68745;BMP180;73143;45.456;11.064;2024-02-23T02:51:26;98936.00;;;10.60
68745;BMP180;73143;45.456;11.064;2024-02-23T02:54:05;98927.80;;;10.60
68745;BMP180;73143;45.456;11.064;2024-02-23T02:56:47;98921.00;;;10.60
68745;BMP180;73143;45.456;11.064;2024-02-23T02:59:25;98908.60;;;10.60
68745;BMP180;73143;45.456;11.064;2024-02-23T03:02:02;98907.80;;;10.60
68745;BMP180;73143;45.456;11.064;2024-02-23T03:04:45;98897.80;;;10.60
68745;BMP180;73143;45.456;11.064;2024-02-23T03:07:23;98896.60;;;10.60
68745;BMP180;73143;45.456;11.064;2024-02-23T03:10:00;98874.60;;;10.60
68745;BMP180;73143;45.456;11.064;2024-02-23T03:12:38;98882.40;;;10.70
68745;BMP180;73143;45.456;11.064;2024-02-23T03:15:17;98881.80;;;10.70
68745;BMP180;73143;45.456;11.064;2024-02-23T03:17:53;98877.60;;;10.70
68745;BMP180;73143;45.456;11.064;2024-02-23T03:20:32;98866.80;;;10.70
68745;BMP180;73143;45.456;11.064;2024-02-23T03:23:10;98859.00;;;10.70
68745;BMP180;73143;45.456;11.064;2024-02-23T03:25:47;98857.80;;;10.70
68745;BMP180;73143;45.456;11.064;2024-02-23T03:28:25;98856.80;;;10.70
68745;BMP180;73143;45.456;11.064;2024-02-23T03:31:02;98860.20;;;10.70
68745;BMP180;73143;45.456;11.064;2024-02-23T03:33:39;98866.60;;;10.80
68745;BMP180;73143;45.456;11.064;2024-02-23T03:36:16;98868.80;;;10.80
68745;BMP180;73143;45.456;11.064;2024-02-23T03:38:54;98863.80;;;10.80
68745;BMP180;73143;45.456;11.064;2024-02-23T03:41:33;98865.20;;;10.80
68745;BMP180;73143;45.456;11.064;2024-02-23T03:44:10;98864.40;;;10.80
68745;BMP180;73143;45.456;11.064;2024-02-23T03:46:48;98857.60;;;10.80
68745;BMP180;73143;45.456;11.064;2024-02-23T03:49:26;98843.40;;;10.88
68745;BMP180;73143;45.456;11.064;2024-02-23T03:52:04;98840.00;;;10.90
68745;BMP180;73143;45.456;11.064;2024-02-23T03:54:41;98827.80;;;10.90
68745;BMP180;73143;45.456;11.064;2024-02-23T03:57:18;98833.20;;;10.90
68745;BMP180;73143;45.456;11.064;2024-02-23T03:59:58;98823.40;;;10.94
68745;BMP180;73143;45.456;11.064;2024-02-23T04:02:45;98815.00;;;11.00
68745;BMP180;73143;45.456;11.064;2024-02-23T04:05:22;98814.80;;;11.06
68745;BMP180;73143;45.456;11.064;2024-02-23T04:07:59;98805.80;;;11.10
68745;BMP180;73143;45.456;11.064;2024-02-23T04:10:39;98808.00;;;11.20
68745;BMP180;73143;45.456;11.064;2024-02-23T04:13:17;98807.40;;;11.20
68745;BMP180;73143;45.456;11.064;2024-02-23T04:15:54;98796.80;;;11.20
68745;BMP180;73143;45.456;11.064;2024-02-23T04:18:31;98801.80;;;11.20
68745;BMP180;73143;45.456;11.064;2024-02-23T04:21:09;98817.80;;;11.10
68745;BMP180;73143;45.456;11.064;2024-02-23T04:23:47;98807.00;;;11.10
68745;BMP180;73143;45.456;11.064;2024-02-23T04:26:24;98813.60;;;11.10
68745;BMP180;73143;45.456;11.064;2024-02-23T04:29:01;98800.40;;;11.10
68745;BMP180;73143;45.456;11.064;2024-02-23T04:31:41;98795.00;;;11.10
68745;BMP180;73143;45.456;11.064;2024-02-23T04:34:19;98798.80;;;11.10
68745;BMP180;73143;45.456;11.064;2024-02-23T04:36:56;98801.00;;;11.10
68745;BMP180;73143;45.456;11.064;2024-02-23T04:39:34;98796.80;;;11.10
68745;BMP180;73143;45.456;11.064;2024-02-23T04:42:13;98785.60;;;11.18
68745;BMP180;73143;45.456;11.064;2024-02-23T04:44:49;98786.80;;;11.20
68745;BMP180;73143;45.456;11.064;2024-02-23T04:47:29;98770.60;;;11.20
68745;BMP180;73143;45.456;11.064;2024-02-23T04:50:11;98769.40;;;11.22
68745;BMP180;73143;45.456;11.064;2024-02-23T04:52:48;98766.40;;;11.30
68745;BMP180;73143;45.456;11.064;2024-02-23T04:55:25;98760.60;;;11.30
68745;BMP180;73143;45.456;11.064;2024-02-23T04:58:02;98742.00;;;11.30
68745;BMP180;73143;45.456;11.064;2024-02-23T05:00:39;98746.60;;;11.30
68745;BMP180;73143;45.456;11.064;2024-02-23T05:03:17;98748.20;;;11.30
68745;BMP180;73143;45.456;11.064;2024-02-23T05:05:54;98735.40;;;11.30
68745;BMP180;73143;45.456;11.064;2024-02-23T05:08:31;98725.00;;;11.30
68745;BMP180;73143;45.456;11.064;2024-02-23T05:11:08;98719.60;;;11.30
68745;BMP180;73143;45.456;11.064;2024-02-23T05:13:45;98708.40;;;11.30
68745;BMP180;73143;45.456;11.064;2024-02-23T05:16:22;98717.60;;;11.30
68745;BMP180;73143;45.456;11.064;2024-02-23T05:18:59;98716.20;;;11.40
68745;BMP180;73143;45.456;11.064;2024-02-23T05:21:37;98704.80;;;11.40
68745;BMP180;73143;45.456;11.064;2024-02-23T05:24:16;98708.20;;;11.48
68745;BMP180;73143;45.456;11.064;2024-02-23T05:26:53;98688.20;;;11.50
68745;BMP180;73143;45.456;11.064;2024-02-23T05:29:33;98677.00;;;11.50
68745;BMP180;73143;45.456;11.064;2024-02-23T05:32:13;98694.40;;;11.60
68745;BMP180;73143;45.456;11.064;2024-02-23T05:34:51;98682.80;;;11.60
68745;BMP180;73143;45.456;11.064;2024-02-23T05:37:32;98671.40;;;11.60
68745;BMP180;73143;45.456;11.064;2024-02-23T05:40:12;98676.60;;;11.60
68745;BMP180;73143;45.456;11.064;2024-02-23T05:42:50;98680.80;;;11.60
68745;BMP180;73143;45.456;11.064;2024-02-23T05:45:27;98660.20;;;11.60
68745;BMP180;73143;45.456;11.064;2024-02-23T05:48:06;98659.80;;;11.60
68745;BMP180;73143;45.456;11.064;2024-02-23T05:50:43;98678.00;;;11.68
68745;BMP180;73143;45.456;11.064;2024-02-23T05:53:21;98676.20;;;11.70
68745;BMP180;73143;45.456;11.064;2024-02-23T05:55:58;98669.20;;;11.70
68745;BMP180;73143;45.456;11.064;2024-02-23T05:58:35;98678.00;;;11.70
68745;BMP180;73143;45.456;11.064;2024-02-23T06:01:13;98672.40;;;11.60
68745;BMP180;73143;45.456;11.064;2024-02-23T06:03:54;98670.00;;;11.70
68745;BMP180;73143;45.456;11.064;2024-02-23T06:06:33;98664.40;;;11.70
68745;BMP180;73143;45.456;11.064;2024-02-23T06:09:10;98657.20;;;11.80
68745;BMP180;73143;45.456;11.064;2024-02-23T06:11:47;98669.00;;;11.80
68745;BMP180;73143;45.456;11.064;2024-02-23T06:14:24;98667.60;;;11.80
68745;BMP180;73143;45.456;11.064;2024-02-23T06:17:00;98665.00;;;11.80
68745;BMP180;73143;45.456;11.064;2024-02-23T06:19:37;98658.00;;;11.80
68745;BMP180;73143;45.456;11.064;2024-02-23T06:22:15;98670.20;;;11.72
68745;BMP180;73143;45.456;11.064;2024-02-23T06:24:55;98661.40;;;11.70
68745;BMP180;73143;45.456;11.064;2024-02-23T06:27:32;98668.80;;;11.72
68745;BMP180;73143;45.456;11.064;2024-02-23T06:30:16;98678.40;;;11.70
68745;BMP180;73143;45.456;11.064;2024-02-23T06:32:54;98675.40;;;11.70
68745;BMP180;73143;45.456;11.064;2024-02-23T06:35:32;98691.60;;;11.70
68745;BMP180;73143;45.456;11.064;2024-02-23T06:38:09;98692.40;;;11.70
68745;BMP180;73143;45.456;11.064;2024-02-23T06:40:48;98692.20;;;11.70
68745;BMP180;73143;45.456;11.064;2024-02-23T06:43:25;98691.60;;;11.70
68745;BMP180;73143;45.456;11.064;2024-02-23T06:46:06;98695.60;;;11.70
68745;BMP180;73143;45.456;11.064;2024-02-23T06:48:45;98691.80;;;11.66
68745;BMP180;73143;45.456;11.064;2024-02-23T06:51:22;98712.80;;;11.60
68745;BMP180;73143;45.456;11.064;2024-02-23T06:53:58;98710.60;;;11.60
68745;BMP180;73143;45.456;11.064;2024-02-23T06:56:35;98707.60;;;11.60
68745;BMP180;73143;45.456;11.064;2024-02-23T06:59:13;98708.60;;;11.60
68745;BMP180;73143;45.456;11.064;2024-02-23T07:01:57;98696.00;;;11.50
68745;BMP180;73143;45.456;11.064;2024-02-23T07:04:34;98707.20;;;11.50
68745;BMP180;73143;45.456;11.064;2024-02-23T07:07:11;98700.60;;;11.40
68745;BMP180;73143;45.456;11.064;2024-02-23T07:09:48;98686.80;;;11.40
68745;BMP180;73143;45.456;11.064;2024-02-23T07:12:27;98707.00;;;11.34
68745;BMP180;73143;45.456;11.064;2024-02-23T07:15:06;98682.40;;;11.30
68745;BMP180;73143;45.456;11.064;2024-02-23T07:17:46;98698.80;;;11.30
68745;BMP180;73143;45.456;11.064;2024-02-23T07:20:23;98691.80;;;11.30
68745;BMP180;73143;45.456;11.064;2024-02-23T07:23:01;98695.80;;;11.30
68745;BMP180;73143;45.456;11.064;2024-02-23T07:25:37;98691.20;;;11.30
68745;BMP180;73143;45.456;11.064;2024-02-23T07:28:15;98692.60;;;11.28
68745;BMP180;73143;45.456;11.064;2024-02-23T07:30:57;98684.40;;;11.20
68745;BMP180;73143;45.456;11.064;2024-02-23T07:33:37;98685.20;;;11.20
68745;BMP180;73143;45.456;11.064;2024-02-23T07:36:19;98678.60;;;11.20
68745;BMP180;73143;45.456;11.064;2024-02-23T07:38:56;98678.00;;;11.20
68745;BMP180;73143;45.456;11.064;2024-02-23T07:41:32;98680.20;;;11.20
68745;BMP180;73143;45.456;11.064;2024-02-23T07:44:11;98684.00;;;11.20
68745;BMP180;73143;45.456;11.064;2024-02-23T07:46:48;98683.80;;;11.20
68745;BMP180;73143;45.456;11.064;2024-02-23T07:49:27;98685.60;;;11.16
68745;BMP180;73143;45.456;11.064;2024-02-23T07:52:06;98683.80;;;11.10
68745;BMP180;73143;45.456;11.064;2024-02-23T07:54:44;98679.40;;;11.10
68745;BMP180;73143;45.456;11.064;2024-02-23T07:57:22;98670.40;;;11.10
68745;BMP180;73143;45.456;11.064;2024-02-23T07:59:59;98666.20;;;11.10
68745;BMP180;73143;45.456;11.064;2024-02-23T08:02:44;98681.80;;;11.10
68745;BMP180;73143;45.456;11.064;2024-02-23T08:05:22;98682.00;;;11.04
68745;BMP180;73143;45.456;11.064;2024-02-23T08:07:59;98671.00;;;11.00
68745;BMP180;73143;45.456;11.064;2024-02-23T08:10:38;98667.00;;;11.04
68745;BMP180;73143;45.456;11.064;2024-02-23T08:13:16;98669.80;;;11.10
68745;BMP180;73143;45.456;11.064;2024-02-23T08:15:53;98669.20;;;11.10
68745;BMP180;73143;45.456;11.064;2024-02-23T08:18:30;98661.00;;;11.10
68745;BMP180;73143;45.456;11.064;2024-02-23T08:21:08;98669.60;;;11.10
68745;BMP180;73143;45.456;11.064;2024-02-23T08:23:46;98670.20;;;11.10
68745;BMP180;73143;45.456;11.064;2024-02-23T08:26:23;98670.40;;;11.10
68745;BMP180;73143;45.456;11.064;2024-02-23T08:28:59;98667.00;;;11.10
68745;BMP180;73143;45.456;11.064;2024-02-23T08:31:36;98661.60;;;11.10
68745;BMP180;73143;45.456;11.064;2024-02-23T08:34:15;98661.20;;;11.10
68745;BMP180;73143;45.456;11.064;2024-02-23T08:36:53;98661.00;;;11.10
68745;BMP180;73143;45.456;11.064;2024-02-23T08:39:30;98658.80;;;11.10
68745;BMP180;73143;45.456;11.064;2024-02-23T08:42:09;98661.60;;;11.10
68745;BMP180;73143;45.456;11.064;2024-02-23T08:44:47;98662.80;;;11.10
68745;BMP180;73143;45.456;11.064;2024-02-23T08:47:24;98657.40;;;11.12
68745;BMP180;73143;45.456;11.064;2024-02-23T08:50:09;98653.80;;;11.20
68745;BMP180;73143;45.456;11.064;2024-02-23T08:52:48;98658.60;;;11.20
68745;BMP180;73143;45.456;11.064;2024-02-23T08:55:25;98661.00;;;11.20
68745;BMP180;73143;45.456;11.064;2024-02-23T08:58:01;98664.20;;;11.20
68745;BMP180;73143;45.456;11.064;2024-02-23T09:00:40;98659.40;;;11.20
68745;BMP180;73143;45.456;11.064;2024-02-23T09:03:18;98664.00;;;11.20
68745;BMP180;73143;45.456;11.064;2024-02-23T09:05:55;98664.20;;;11.28
68745;BMP180;73143;45.456;11.064;2024-02-23T09:08:32;98662.00;;;11.30
68745;BMP180;73143;45.456;11.064;2024-02-23T09:11:10;98661.40;;;11.30
68745;BMP180;73143;45.456;11.064;2024-02-23T09:13:48;98666.40;;;11.38
68745;BMP180;73143;45.456;11.064;2024-02-23T09:16:25;98659.40;;;11.38
68745;BMP180;73143;45.456;11.064;2024-02-23T09:19:02;98667.40;;;11.40
68745;BMP180;73143;45.456;11.064;2024-02-23T09:21:39;98653.60;;;11.40
68745;BMP180;73143;45.456;11.064;2024-02-23T09:24:18;98662.20;;;11.50
68745;BMP180;73143;45.456;11.064;2024-02-23T09:26:56;98667.80;;;11.50
68745;BMP180;73143;45.456;11.064;2024-02-23T09:29:34;98674.20;;;11.52
68745;BMP180;73143;45.456;11.064;2024-02-23T09:32:11;98674.00;;;11.50
68745;BMP180;73143;45.456;11.064;2024-02-23T09:34:48;98683.20;;;11.50
68745;BMP180;73143;45.456;11.064;2024-02-23T09:37:25;98673.60;;;11.50
68745;BMP180;73143;45.456;11.064;2024-02-23T09:40:02;98675.60;;;11.50
68745;BMP180;73143;45.456;11.064;2024-02-23T09:42:40;98676.40;;;11.50
68745;BMP180;73143;45.456;11.064;2024-02-23T09:45:19;98672.00;;;11.50
68745;BMP180;73143;45.456;11.064;2024-02-23T09:47:58;98666.40;;;11.50
68745;BMP180;73143;45.456;11.064;2024-02-23T09:50:39;98663.00;;;11.50
68745;BMP180;73143;45.456;11.064;2024-02-23T09:53:19;98663.80;;;11.50
68745;BMP180;73143;45.456;11.064;2024-02-23T09:56:01;98659.40;;;11.50
68745;BMP180;73143;45.456;11.064;2024-02-23T09:58:39;98667.40;;;11.50
68745;BMP180;73143;45.456;11.064;2024-02-23T10:01:27;98659.60;;;11.50
68745;BMP180;73143;45.456;11.064;2024-02-23T10:04:04;98650.60;;;11.50
68745;BMP180;73143;45.456;11.064;2024-02-23T10:06:41;98655.20;;;11.42
68745;BMP180;73143;45.456;11.064;2024-02-23T10:09:21;98671.60;;;11.46
68745;BMP180;73143;45.456;11.064;2024-02-23T10:11:59;98667.00;;;11.50
68745;BMP180;73143;45.456;11.064;2024-02-23T10:14:36;98667.60;;;11.50
68745;BMP180;73143;45.456;11.064;2024-02-23T10:17:13;98662.80;;;11.40
68745;BMP180;73143;45.456;11.064;2024-02-23T10:19:50;98655.60;;;11.50
68745;BMP180;73143;45.456;11.064;2024-02-23T10:22:28;98657.40;;;11.50
68745;BMP180;73143;45.456;11.064;2024-02-23T10:25:08;98655.40;;;11.50
68745;BMP180;73143;45.456;11.064;2024-02-23T10:27:46;98653.60;;;11.50
68745;BMP180;73143;45.456;11.064;2024-02-23T10:30:24;98657.40;;;11.50
68745;BMP180;73143;45.456;11.064;2024-02-23T10:33:05;98658.20;;;11.50
68745;BMP180;73143;45.456;11.064;2024-02-23T10:35:45;98658.40;;;11.58
68745;BMP180;73143;45.456;11.064;2024-02-23T10:38:23;98663.40;;;11.60
68745;BMP180;73143;45.456;11.064;2024-02-23T10:41:02;98672.00;;;11.60
68745;BMP180;73143;45.456;11.064;2024-02-23T10:43:47;98659.60;;;11.56
68745;BMP180;73143;45.456;11.064;2024-02-23T10:46:24;98660.40;;;11.50
68745;BMP180;73143;45.456;11.064;2024-02-23T10:49:03;98660.20;;;11.50
68745;BMP180;73143;45.456;11.064;2024-02-23T10:51:42;98662.00;;;11.54
68745;BMP180;73143;45.456;11.064;2024-02-23T10:54:21;98668.60;;;11.58
68745;BMP180;73143;45.456;11.064;2024-02-23T10:56:58;98659.60;;;11.58
68745;BMP180;73143;45.456;11.064;2024-02-23T10:59:37;98663.20;;;11.60
68745;BMP180;73143;45.456;11.064;2024-02-23T11:02:17;98654.00;;;11.60
68745;BMP180;73143;45.456;11.064;2024-02-23T11:04:57;98651.20;;;11.60
68745;BMP180;73143;45.456;11.064;2024-02-23T11:07:37;98644.60;;;11.60
68745;BMP180;73143;45.456;11.064;2024-02-23T11:10:18;98652.60;;;11.60
68745;BMP180;73143;45.456;11.064;2024-02-23T11:13:10;98655.60;;;11.60
68745;BMP180;73143;45.456;11.064;2024-02-23T11:15:49;98658.80;;;11.60
68745;BMP180;73143;45.456;11.064;2024-02-23T11:18:33;98652.60;;;11.60
68745;BMP180;73143;45.456;11.064;2024-02-23T11:21:14;98646.40;;;11.64
68745;BMP180;73143;45.456;11.064;2024-02-23T11:23:52;98639.60;;;11.64
68745;BMP180;73143;45.456;11.064;2024-02-23T11:26:31;98635.40;;;11.70
68745;BMP180;73143;45.456;11.064;2024-02-23T11:29:16;98638.20;;;11.70
68745;BMP180;73143;45.456;11.064;2024-02-23T11:31:55;98648.80;;;11.70
68745;BMP180;73143;45.456;11.064;2024-02-23T11:34:36;98643.40;;;11.70
68745;BMP180;73143;45.456;11.064;2024-02-23T11:37:20;98641.00;;;11.78
68745;BMP180;73143;45.456;11.064;2024-02-23T11:39:58;98640.60;;;11.80
68745;BMP180;73143;45.456;11.064;2024-02-23T11:42:36;98638.80;;;11.80
68745;BMP180;73143;45.456;11.064;2024-02-23T11:45:17;98629.40;;;11.80
68745;BMP180;73143;45.456;11.064;2024-02-23T11:47:55;98624.40;;;11.80
68745;BMP180;73143;45.456;11.064;2024-02-23T11:50:32;98621.80;;;11.90
68745;BMP180;73143;45.456;11.064;2024-02-23T11:53:10;98617.60;;;11.90
68745;BMP180;73143;45.456;11.064;2024-02-23T11:55:47;98614.80;;;11.90
68745;BMP180;73143;45.456;11.064;2024-02-23T11:58:24;98603.40;;;11.90
68745;BMP180;73143;45.456;11.064;2024-02-23T12:01:01;98606.20;;;11.90
68745;BMP180;73143;45.456;11.064;2024-02-23T12:03:42;98605.00;;;11.90
68745;BMP180;73143;45.456;11.064;2024-02-23T12:06:20;98602.40;;;11.92
68745;BMP180;73143;45.456;11.064;2024-02-23T12:08:57;98598.00;;;12.00
68745;BMP180;73143;45.456;11.064;2024-02-23T12:11:34;98589.40;;;12.00
68745;BMP180;73143;45.456;11.064;2024-02-23T12:14:13;98584.00;;;12.00
68745;BMP180;73143;45.456;11.064;2024-02-23T12:16:52;98590.60;;;12.00
68745;BMP180;73143;45.456;11.064;2024-02-23T12:19:30;98592.60;;;12.00
68745;BMP180;73143;45.456;11.064;2024-02-23T12:22:08;98588.60;;;12.00
68745;BMP180;73143;45.456;11.064;2024-02-23T12:24:47;98587.40;;;12.00
68745;BMP180;73143;45.456;11.064;2024-02-23T12:27:25;98585.20;;;12.00
68745;BMP180;73143;45.456;11.064;2024-02-23T12:30:04;98594.80;;;12.00
68745;BMP180;73143;45.456;11.064;2024-02-23T12:32:43;98597.20;;;12.00
68745;BMP180;73143;45.456;11.064;2024-02-23T12:35:21;98604.80;;;11.98
68745;BMP180;73143;45.456;11.064;2024-02-23T12:37:59;98609.40;;;11.90
68745;BMP180;73143;45.456;11.064;2024-02-23T12:40:36;98616.20;;;11.90
68745;BMP180;73143;45.456;11.064;2024-02-23T12:43:13;98614.60;;;11.90
68745;BMP180;73143;45.456;11.064;2024-02-23T12:45:50;98613.40;;;11.90
68745;BMP180;73143;45.456;11.064;2024-02-23T12:48:26;98610.80;;;11.90
68745;BMP180;73143;45.456;11.064;2024-02-23T12:51:03;98609.20;;;11.86
68745;BMP180;73143;45.456;11.064;2024-02-23T12:53:41;98614.60;;;11.80
68745;BMP180;73143;45.456;11.064;2024-02-23T12:56:19;98614.80;;;11.80
68745;BMP180;73143;45.456;11.064;2024-02-23T12:58:57;98609.00;;;11.80
68745;BMP180;73143;45.456;11.064;2024-02-23T13:01:34;98607.60;;;11.80
68745;BMP180;73143;45.456;11.064;2024-02-23T13:04:15;98606.80;;;11.70
68745;BMP180;73143;45.456;11.064;2024-02-23T13:06:52;98601.80;;;11.70
68745;BMP180;73143;45.456;11.064;2024-02-23T13:09:30;98594.80;;;11.70
68745;BMP180;73143;45.456;11.064;2024-02-23T13:12:09;98587.20;;;11.60
68745;BMP180;73143;45.456;11.064;2024-02-23T13:14:46;98579.40;;;11.60
68745;BMP180;73143;45.456;11.064;2024-02-23T13:17:23;98573.20;;;11.60
68745;BMP180;73143;45.456;11.064;2024-02-23T13:20:00;98567.80;;;11.60
68745;BMP180;73143;45.456;11.064;2024-02-23T13:22:45;98563.00;;;11.56
68745;BMP180;73143;45.456;11.064;2024-02-23T13:25:22;98560.60;;;11.54
68745;BMP180;73143;45.456;11.064;2024-02-23T13:28:00;98564.40;;;11.54
68745;BMP180;73143;45.456;11.064;2024-02-23T13:30:36;98566.00;;;11.50
68745;BMP180;73143;45.456;11.064;2024-02-23T13:33:13;98567.80;;;11.50
68745;BMP180;73143;45.456;11.064;2024-02-23T13:35:51;98584.40;;;11.50
68745;BMP180;73143;45.456;11.064;2024-02-23T13:38:28;98599.80;;;11.50
68745;BMP180;73143;45.456;11.064;2024-02-23T13:41:07;98610.00;;;11.50
68745;BMP180;73143;45.456;11.064;2024-02-23T13:43:44;98606.00;;;11.42
68745;BMP180;73143;45.456;11.064;2024-02-23T13:46:23;98610.60;;;11.40
68745;BMP180;73143;45.456;11.064;2024-02-23T13:49:09;98618.40;;;11.40
68745;BMP180;73143;45.456;11.064;2024-02-23T13:51:47;98607.80;;;11.40
68745;BMP180;73143;45.456;11.064;2024-02-23T13:54:25;98602.40;;;11.38
68745;BMP180;73143;45.456;11.064;2024-02-23T13:57:01;98595.80;;;11.34
68745;BMP180;73143;45.456;11.064;2024-02-23T13:59:39;98597.80;;;11.30
68745;BMP180;73143;45.456;11.064;2024-02-23T14:02:16;98605.00;;;11.30
68745;BMP180;73143;45.456;11.064;2024-02-23T14:04:55;98602.20;;;11.30
68745;BMP180;73143;45.456;11.064;2024-02-23T14:07:32;98607.60;;;11.30
68745;BMP180;73143;45.456;11.064;2024-02-23T14:10:13;98610.20;;;11.30
68745;BMP180;73143;45.456;11.064;2024-02-23T14:12:52;98602.60;;;11.30
68745;BMP180;73143;45.456;11.064;2024-02-23T14:15:30;98593.60;;;11.30
68745;BMP180;73143;45.456;11.064;2024-02-23T14:18:08;98588.80;;;11.30
68745;BMP180;73143;45.456;11.064;2024-02-23T14:20:46;98585.20;;;11.30
68745;BMP180;73143;45.456;11.064;2024-02-23T14:23:23;98597.20;;;11.30
68745;BMP180;73143;45.456;11.064;2024-02-23T14:26:00;98595.20;;;11.30
68745;BMP180;73143;45.456;11.064;2024-02-23T14:28:37;98587.60;;;11.30
68745;BMP180;73143;45.456;11.064;2024-02-23T14:31:13;98579.60;;;11.28
68745;BMP180;73143;45.456;11.064;2024-02-23T14:33:50;98581.80;;;11.20
68745;BMP180;73143;45.456;11.064;2024-02-23T14:36:27;98571.80;;;11.30
68745;BMP180;73143;45.456;11.064;2024-02-23T14:39:08;98572.60;;;11.30
68745;BMP180;73143;45.456;11.064;2024-02-23T14:41:46;98573.00;;;11.30
68745;BMP180;73143;45.456;11.064;2024-02-23T14:44:24;98587.40;;;11.30
68745;BMP180;73143;45.456;11.064;2024-02-23T14:47:01;98582.80;;;11.30
68745;BMP180;73143;45.456;11.064;2024-02-23T14:49:37;98580.60;;;11.30
68745;BMP180;73143;45.456;11.064;2024-02-23T14:52:15;98582.40;;;11.30
68745;BMP180;73143;45.456;11.064;2024-02-23T14:54:52;98590.00;;;11.30
68745;BMP180;73143;45.456;11.064;2024-02-23T14:57:30;98587.00;;;11.30